createdAt,value
2022-12-04T00:00:14.881Z,110.43
2022-12-04T00:02:42.146Z,116.63
2022-12-04T00:05:09.933Z,102.75
2022-12-04T00:07:36.890Z,109.45
2022-12-04T00:10:04.298Z,115.13
2022-12-04T00:12:31.150Z,111.45
2022-12-04T00:15:24.567Z,101.65
2022-12-04T00:17:48.967Z,112.68
2022-12-04T00:20:16.106Z,108.68
2022-12-04T00:22:42.838Z,117.97
2022-12-04T00:25:09.769Z,106.65
2022-12-04T00:27:36.615Z,119.85
2022-12-04T00:30:04.168Z,115.93
2022-12-04T00:32:30.927Z,115.10
2022-12-04T00:34:57.835Z,107.43
2022-12-04T00:37:24.643Z,111.82
2022-12-04T00:39:51.515Z,111.88
2022-12-04T00:42:18.372Z,109.80
2022-12-04T00:44:45.204Z,108.75
2022-12-04T00:47:11.939Z,117.55
2022-12-04T00:49:38.672Z,113.28
2022-12-04T00:52:05.491Z,110.63
2022-12-04T00:54:32.241Z,116.25
2022-12-04T00:56:59.064Z,106.40
2022-12-04T00:59:25.865Z,112.00
2022-12-04T01:01:52.627Z,119.53
2022-12-04T01:04:19.444Z,105.55
2022-12-04T01:06:46.752Z,114.68
2022-12-04T01:09:13.514Z,105.30
2022-12-04T01:11:40.275Z,116.68
2022-12-04T01:14:07.155Z,109.35
2022-12-04T01:16:37.769Z,115.85
2022-12-04T01:19:07.857Z,114.40
2022-12-04T01:21:35.200Z,111.40
2022-12-04T01:24:01.905Z,114.70
2022-12-04T01:26:28.845Z,108.53
2022-12-04T01:28:55.646Z,121.82
2022-12-04T01:31:23.305Z,110.68
2022-12-04T01:33:51.243Z,116.22
2022-12-04T01:36:24.178Z,112.53
2022-12-04T01:38:51.470Z,109.22
2022-12-04T01:41:23.868Z,118.78
2022-12-04T01:44:13.959Z,114.82
2022-12-04T01:46:42.243Z,114.00
2022-12-04T01:49:31.782Z,110.15
2022-12-04T01:52:03.667Z,115.35
2022-12-04T01:54:34.334Z,118.03
2022-12-04T01:57:03.935Z,112.00
2022-12-04T01:59:41.784Z,123.78
2022-12-04T02:02:19.019Z,117.55
2022-12-04T02:04:46.731Z,115.53
2022-12-04T02:07:13.452Z,123.82
2022-12-04T02:09:41.733Z,119.53
2022-12-04T02:12:32.880Z,115.88
2022-12-04T02:15:19.979Z,118.75
2022-12-04T02:18:01.352Z,118.30
2022-12-04T02:20:39.496Z,113.68
2022-12-04T02:23:06.133Z,116.80
2022-12-04T02:25:38.618Z,116.28
2022-12-04T02:28:14.953Z,105.47
2022-12-04T02:30:44.152Z,126.63
2022-12-04T02:33:23.612Z,120.05
2022-12-04T02:36:11.475Z,118.80
2022-12-04T02:38:45.890Z,108.60
2022-12-04T02:41:28.892Z,116.82
2022-12-04T02:44:05.410Z,117.70
2022-12-04T02:46:42.472Z,120.97
2022-12-04T02:49:15.753Z,105.45
2022-12-04T02:51:44.970Z,108.95
2022-12-04T02:54:22.039Z,114.55
2022-12-04T02:56:50.374Z,109.70
2022-12-04T02:59:33.802Z,115.13
2022-12-04T03:02:09.288Z,114.57
2022-12-04T03:04:38.188Z,121.40
2022-12-04T03:07:11.542Z,116.22
2022-12-04T03:09:47.713Z,123.60
2022-12-04T03:12:25.765Z,114.20
2022-12-04T03:15:02.538Z,118.20
2022-12-04T03:17:46.317Z,122.95
2022-12-04T03:20:16.295Z,113.50
2022-12-04T03:22:46.142Z,119.95
2022-12-04T03:25:13.906Z,110.70
2022-12-04T03:28:16.212Z,114.88
2022-12-04T03:30:51.715Z,115.93
2022-12-04T03:33:28.888Z,110.25
2022-12-04T03:36:02.251Z,128.77
2022-12-04T03:39:04.726Z,120.53
2022-12-04T03:42:00.176Z,123.75
2022-12-04T03:44:48.914Z,116.40
2022-12-04T03:47:26.956Z,105.05
2022-12-04T03:50:01.818Z,114.55
2022-12-04T03:55:08.911Z,102.30
2022-12-04T03:57:41.812Z,101.43
2022-12-04T04:00:19.122Z,108.80
2022-12-04T04:02:58.221Z,111.40
2022-12-04T04:05:27.553Z,98.80
2022-12-04T04:08:17.860Z,105.15
2022-12-04T04:10:45.250Z,105.53
2022-12-04T04:13:35.622Z,105.00
2022-12-04T04:16:23.497Z,107.65
2022-12-04T04:19:11.269Z,100.38
2022-12-04T04:21:58.780Z,105.78
2022-12-04T04:24:41.784Z,98.40
2022-12-04T04:27:08.620Z,105.63
2022-12-04T04:29:35.878Z,95.97
2022-12-04T04:32:13.550Z,95.80
2022-12-04T04:35:07.988Z,99.50
2022-12-04T04:37:55.812Z,107.38
2022-12-04T04:40:33.857Z,101.20
2022-12-04T04:43:03.909Z,91.38
2022-12-04T04:45:44.712Z,104.95
2022-12-04T04:48:41.836Z,99.07
2022-12-04T04:51:09.775Z,96.88
2022-12-04T04:53:51.585Z,85.07
2022-12-04T04:56:19.321Z,94.85
2022-12-04T04:58:46.146Z,93.47
2022-12-04T05:01:16.084Z,94.53
2022-12-04T05:03:43.106Z,93.25
2022-12-04T05:06:10.261Z,94.80
2022-12-04T05:08:37.950Z,83.18
2022-12-04T05:11:05.495Z,86.40
2022-12-04T05:13:32.984Z,93.18
2022-12-04T05:16:05.918Z,82.90
2022-12-04T05:18:34.329Z,99.43
2022-12-04T05:21:09.588Z,97.18
2022-12-04T05:23:36.308Z,89.95
2022-12-04T05:26:05.407Z,92.95
2022-12-04T05:28:32.403Z,90.40
2022-12-04T05:31:01.777Z,91.82
2022-12-04T05:33:29.983Z,90.22
2022-12-04T05:36:01.540Z,94.95
2022-12-04T05:38:28.653Z,91.63
2022-12-04T05:40:57.460Z,90.93
2022-12-04T05:43:24.233Z,95.15
2022-12-04T05:45:50.980Z,87.57
2022-12-04T05:48:17.737Z,103.38
2022-12-04T05:50:44.559Z,92.10
2022-12-04T05:53:11.344Z,93.10
2022-12-04T05:55:38.183Z,98.70
2022-12-04T05:58:04.965Z,93.97
2022-12-04T06:00:32.984Z,86.78
2022-12-04T06:02:59.874Z,101.63
2022-12-04T06:05:26.644Z,100.95
2022-12-04T06:07:53.458Z,96.53
2022-12-04T06:10:20.361Z,104.80
2022-12-04T06:12:47.115Z,100.07
2022-12-04T06:15:13.857Z,100.10
2022-12-04T06:17:40.595Z,96.68
2022-12-04T06:20:11.469Z,115.90
2022-12-04T06:22:39.094Z,101.93
2022-12-04T06:25:07.056Z,104.18
2022-12-04T06:27:33.954Z,107.55
2022-12-04T06:30:00.924Z,111.40
2022-12-04T06:32:27.705Z,109.20
2022-12-04T06:34:55.475Z,111.93
2022-12-04T06:37:24.128Z,107.28
2022-12-04T06:39:50.998Z,105.57
2022-12-04T06:42:18.358Z,112.65
2022-12-04T06:44:45.118Z,111.60
2022-12-04T06:47:11.872Z,121.07
2022-12-04T06:49:38.760Z,120.60
2022-12-04T06:52:05.492Z,115.20
2022-12-04T06:54:32.218Z,119.03
2022-12-04T06:56:59.127Z,107.03
2022-12-04T06:59:26.005Z,116.75
2022-12-04T07:01:52.830Z,116.93
2022-12-04T07:04:19.638Z,122.50
2022-12-04T07:06:46.351Z,120.95
2022-12-04T07:09:17.820Z,121.78
2022-12-04T07:11:45.208Z,124.15
2022-12-04T07:14:13.158Z,121.25
2022-12-04T07:16:42.171Z,121.72
2022-12-04T07:19:11.167Z,124.82
2022-12-04T07:21:38.233Z,133.48
2022-12-04T07:24:05.803Z,134.55
2022-12-04T07:26:32.601Z,137.85
2022-12-04T07:28:59.965Z,140.48
2022-12-04T07:31:28.888Z,127.13
2022-12-04T07:33:56.592Z,132.18
2022-12-04T07:36:24.860Z,132.13
2022-12-04T07:38:51.896Z,144.52
2022-12-04T07:41:19.842Z,147.93
2022-12-04T07:43:47.200Z,145.32
2022-12-04T07:46:17.589Z,146.63
2022-12-04T07:48:44.517Z,140.15
2022-12-04T07:51:12.589Z,137.00
2022-12-04T07:53:39.519Z,149.35
2022-12-04T07:56:07.010Z,147.52
2022-12-04T07:58:34.534Z,139.90
2022-12-04T08:01:14.965Z,150.93
2022-12-04T08:03:47.622Z,139.32
2022-12-04T08:06:16.077Z,161.75
2022-12-04T08:08:42.830Z,136.43
2022-12-04T08:11:12.057Z,142.73
2022-12-04T08:13:38.811Z,137.38
2022-12-04T08:16:08.395Z,146.15
2022-12-04T08:18:35.502Z,143.27
2022-12-04T08:21:09.622Z,130.02
2022-12-04T08:23:37.387Z,142.55
2022-12-04T08:26:05.011Z,137.52
2022-12-04T08:28:32.609Z,142.10
2022-12-04T08:31:20.264Z,140.40
2022-12-04T08:33:48.469Z,144.80
2022-12-04T08:36:17.681Z,144.45
2022-12-04T08:38:44.436Z,132.40
2022-12-04T08:41:13.816Z,135.20
2022-12-04T08:43:41.173Z,146.82
2022-12-04T08:46:14.299Z,135.73
2022-12-04T08:48:41.469Z,129.45
2022-12-04T08:51:14.045Z,133.82
2022-12-04T08:53:40.892Z,137.20
2022-12-04T08:56:07.852Z,129.13
2022-12-04T08:58:34.710Z,131.88
2022-12-04T09:01:10.228Z,131.88
2022-12-04T09:03:37.429Z,130.48
2022-12-04T09:06:05.326Z,144.70
2022-12-04T09:08:32.828Z,136.55
2022-12-04T09:11:07.676Z,130.40
2022-12-04T09:16:05.359Z,125.25
2022-12-04T09:18:32.467Z,119.75
2022-12-04T09:21:01.679Z,117.47
2022-12-04T09:23:28.711Z,123.07
2022-12-04T09:25:55.476Z,134.32
2022-12-04T09:28:22.457Z,122.95
2022-12-04T09:31:05.573Z,135.77
2022-12-04T09:33:33.054Z,126.63
2022-12-04T09:36:00.809Z,149.52
2022-12-04T09:38:28.741Z,225.90
2022-12-04T09:41:15.524Z,141.15
2022-12-04T09:43:51.475Z,121.97
2022-12-04T09:46:44.519Z,126.18
2022-12-04T09:49:33.173Z,128.05
2022-12-04T09:52:06.636Z,117.95
2022-12-04T09:54:40.586Z,116.45
2022-12-04T09:57:25.729Z,89.53
2022-12-04T09:59:53.780Z,120.60
2022-12-04T10:02:41.620Z,115.63
2022-12-04T10:05:18.292Z,119.78
2022-12-04T10:07:55.806Z,118.13
2022-12-04T10:10:27.343Z,119.05
2022-12-04T10:13:04.100Z,118.88
2022-12-04T10:16:01.549Z,122.50
2022-12-04T10:18:34.161Z,120.85
2022-12-04T10:21:19.835Z,118.93
2022-12-04T10:23:55.511Z,109.70
2022-12-04T10:26:28.268Z,110.45
2022-12-04T10:29:03.365Z,118.75
2022-12-04T10:31:32.728Z,111.68
2022-12-04T10:34:23.497Z,118.72
2022-12-04T10:36:53.697Z,120.10
2022-12-04T10:39:40.445Z,118.60
2022-12-04T10:42:25.316Z,112.75
2022-12-04T10:44:52.929Z,118.13
2022-12-04T10:47:22.184Z,116.47
2022-12-04T10:49:51.469Z,118.60
2022-12-04T10:52:18.496Z,117.00
2022-12-04T10:54:52.030Z,116.32
2022-12-04T10:57:18.875Z,115.15
2022-12-04T10:59:55.324Z,118.65
2022-12-04T11:02:26.225Z,119.15
2022-12-04T11:04:53.111Z,116.05
2022-12-04T11:07:23.235Z,119.10
2022-12-04T11:10:04.230Z,124.63
2022-12-04T11:12:32.195Z,122.03
2022-12-04T11:15:08.127Z,111.07
2022-12-04T11:17:35.097Z,112.50
2022-12-04T11:20:08.424Z,112.50
2022-12-04T11:22:47.346Z,123.30
2022-12-04T11:25:18.468Z,116.63
2022-12-04T11:27:48.182Z,112.30
2022-12-04T11:30:37.133Z,122.72
2022-12-04T11:33:08.149Z,120.00
2022-12-04T11:35:35.241Z,123.50
2022-12-04T11:38:09.624Z,124.45
2022-12-04T11:40:37.120Z,98.18
2022-12-04T11:43:09.999Z,125.72
2022-12-04T11:45:36.970Z,123.32
2022-12-04T11:48:13.581Z,119.47
2022-12-04T11:51:01.585Z,118.95
2022-12-04T11:53:40.598Z,121.38
2022-12-04T11:56:16.971Z,121.88
2022-12-04T11:58:53.842Z,114.57
2022-12-04T12:01:36.213Z,124.05
2022-12-04T12:04:28.101Z,116.68
2022-12-04T12:07:06.805Z,114.18
2022-12-04T12:10:01.210Z,127.55
2022-12-04T12:12:56.307Z,126.85
2022-12-04T12:15:41.032Z,111.82
2022-12-04T12:18:31.405Z,120.22
2022-12-04T12:21:26.326Z,110.55
2022-12-04T12:24:14.404Z,114.05
2022-12-04T12:27:16.530Z,117.55
2022-12-04T12:29:57.054Z,120.97
2022-12-04T12:32:32.587Z,124.28
2022-12-04T12:35:00.568Z,129.60
2022-12-04T12:37:34.033Z,131.02
2022-12-04T12:40:21.189Z,122.60
2022-12-04T12:43:14.003Z,119.60
2022-12-04T12:46:15.003Z,123.38
2022-12-04T12:49:01.473Z,115.55
2022-12-04T12:51:37.169Z,124.75
2022-12-04T12:54:28.492Z,121.88
2022-12-04T12:57:04.536Z,119.18
2022-12-04T12:59:33.182Z,122.80
2022-12-04T13:02:30.197Z,127.47
2022-12-04T13:05:10.988Z,129.52
2022-12-04T13:07:48.943Z,119.90
2022-12-04T13:10:42.562Z,126.07
2022-12-04T13:13:22.604Z,112.25
2022-12-04T13:15:59.274Z,114.78
2022-12-04T13:18:30.569Z,112.65
2022-12-04T13:21:01.986Z,117.93
2022-12-04T13:23:46.255Z,123.45
2022-12-04T13:26:16.258Z,122.33
2022-12-04T13:28:48.932Z,132.68
2022-12-04T13:32:00.933Z,122.13
2022-12-04T13:34:56.361Z,123.10
2022-12-04T13:37:49.903Z,110.93
2022-12-04T13:40:42.849Z,128.95
2022-12-04T13:43:22.254Z,118.90
2022-12-04T13:45:51.125Z,112.18
2022-12-04T13:48:28.753Z,117.50
2022-12-04T13:51:26.405Z,123.88
2022-12-04T13:54:36.940Z,114.80
2022-12-04T13:57:30.162Z,110.28
2022-12-04T14:00:24.428Z,114.57
2022-12-04T14:02:57.106Z,112.65
2022-12-04T14:05:30.503Z,109.95
2022-12-04T14:08:07.246Z,111.63
2022-12-04T14:10:38.080Z,116.40
2022-12-04T14:13:22.728Z,106.88
2022-12-04T14:16:02.403Z,120.10
2022-12-04T14:18:30.417Z,115.85
2022-12-04T14:21:04.875Z,112.30
2022-12-04T14:23:42.847Z,123.05
2022-12-04T14:27:03.695Z,112.88
2022-12-04T14:29:30.423Z,121.28
2022-12-04T14:32:01.087Z,122.90
2022-12-04T14:34:32.099Z,124.78
2022-12-04T14:36:59.709Z,129.35
2022-12-04T14:39:46.636Z,132.23
2022-12-04T14:42:32.944Z,122.97
2022-12-04T14:45:00.996Z,130.68
2022-12-04T14:47:49.916Z,116.55
2022-12-04T14:50:34.698Z,126.15
2022-12-04T14:53:32.580Z,134.23
2022-12-04T14:56:14.996Z,114.35
2022-12-04T14:58:45.995Z,118.25
2022-12-04T15:01:21.669Z,119.43
2022-12-04T15:03:56.196Z,129.63
2022-12-04T15:06:27.380Z,119.65
2022-12-04T15:09:19.663Z,122.05
2022-12-04T15:12:11.446Z,122.65
2022-12-04T15:14:50.029Z,124.63
2022-12-04T15:17:18.753Z,124.88
2022-12-04T15:19:45.967Z,122.93
2022-12-04T15:22:27.056Z,116.53
2022-12-04T15:24:55.150Z,126.40
2022-12-04T15:27:31.747Z,125.13
2022-12-04T15:30:01.642Z,130.70
2022-12-04T15:32:30.002Z,133.25
2022-12-04T15:35:08.909Z,128.65
2022-12-04T15:37:36.295Z,127.97
2022-12-04T15:40:09.382Z,123.68
2022-12-04T15:42:36.198Z,130.95
2022-12-04T15:45:09.107Z,122.22
2022-12-04T15:47:53.664Z,116.70
2022-12-04T15:50:24.936Z,124.50
2022-12-04T15:53:15.493Z,125.65
2022-12-04T15:55:54.286Z,126.03
2022-12-04T15:58:33.399Z,131.88
2022-12-04T16:01:01.624Z,127.32
2022-12-04T16:03:37.641Z,132.60
2022-12-04T16:06:07.722Z,127.63
2022-12-04T16:08:38.588Z,126.72
2022-12-04T16:11:22.359Z,132.57
2022-12-04T16:14:02.037Z,122.68
2022-12-04T16:16:29.212Z,129.50
2022-12-04T16:18:56.251Z,128.07
2022-12-04T16:21:29.944Z,132.93
2022-12-04T16:24:07.271Z,133.48
2022-12-04T16:26:34.341Z,133.32
2022-12-04T16:29:01.259Z,125.47
2022-12-04T16:31:28.157Z,135.90
2022-12-04T16:33:54.971Z,126.53
2022-12-04T16:36:21.886Z,126.95
2022-12-04T16:38:48.686Z,137.15
2022-12-04T16:41:17.559Z,147.50
2022-12-04T16:43:44.950Z,125.63
2022-12-04T16:46:16.295Z,127.95
2022-12-04T16:48:43.544Z,134.02
2022-12-04T16:51:22.754Z,131.65
2022-12-04T16:53:51.811Z,123.85
2022-12-04T16:56:20.309Z,136.27
2022-12-04T16:58:47.614Z,149.48
2022-12-04T17:01:24.758Z,128.18
2022-12-04T17:03:52.071Z,128.90
2022-12-04T17:06:19.039Z,125.60
2022-12-04T17:08:46.140Z,115.65
2022-12-04T17:11:14.669Z,122.30
2022-12-04T17:13:41.988Z,131.40
2022-12-04T17:16:10.627Z,129.55
2022-12-04T17:18:42.262Z,118.28
2022-12-04T17:21:11.444Z,123.45
2022-12-04T17:23:39.235Z,126.65
2022-12-04T17:26:08.471Z,120.15
2022-12-04T17:28:36.525Z,120.93
2022-12-04T17:31:06.173Z,122.38
2022-12-04T17:33:33.581Z,124.32
2022-12-04T17:36:00.463Z,133.07
2022-12-04T17:38:27.936Z,129.27
2022-12-04T17:41:01.871Z,132.15
2022-12-04T17:43:30.156Z,111.90
2022-12-04T17:45:58.018Z,126.00
2022-12-04T17:48:25.628Z,132.65
2022-12-04T17:51:22.256Z,132.77
2022-12-04T17:53:49.535Z,132.13
2022-12-04T17:56:21.209Z,116.40
2022-12-04T17:58:48.300Z,125.43
2022-12-04T18:01:28.720Z,121.57
2022-12-04T18:03:57.968Z,110.18
2022-12-04T18:06:30.619Z,125.22
2022-12-04T18:08:57.835Z,125.63
2022-12-04T18:11:27.962Z,113.28
2022-12-04T18:14:00.123Z,122.18
2022-12-04T18:16:29.195Z,105.63
2022-12-04T18:18:57.104Z,112.28
2022-12-04T18:21:24.117Z,113.20
2022-12-04T18:23:51.065Z,115.35
2022-12-04T18:26:22.776Z,125.50
2022-12-04T18:28:50.822Z,112.65
2022-12-04T18:31:19.423Z,111.60
2022-12-04T18:33:49.432Z,112.13
2022-12-04T18:36:24.993Z,116.88
2022-12-04T18:39:00.456Z,114.57
2022-12-04T18:41:28.314Z,104.97
2022-12-04T18:43:55.523Z,107.45
2022-12-04T18:46:22.809Z,112.35
2022-12-04T18:48:52.777Z,124.15
2022-12-04T18:51:21.173Z,115.70
2022-12-04T18:53:48.911Z,123.68
2022-12-04T18:56:16.748Z,113.75
2022-12-04T18:58:44.689Z,116.85
2022-12-04T19:01:19.742Z,117.30
2022-12-04T19:03:47.608Z,114.43
2022-12-04T19:06:15.429Z,111.20
2022-12-04T19:08:43.504Z,123.30
2022-12-04T19:11:15.989Z,115.72
2022-12-04T19:13:43.471Z,119.70
2022-12-04T19:16:12.731Z,122.90
2022-12-04T19:18:39.640Z,110.97
2022-12-04T19:21:09.919Z,115.60
2022-12-04T19:23:36.860Z,112.78
2022-12-04T19:26:04.169Z,113.68
2022-12-04T19:28:31.157Z,116.95
2022-12-04T19:30:58.249Z,117.03
2022-12-04T19:33:26.413Z,116.53
2022-12-04T19:36:13.369Z,108.70
2022-12-04T19:38:41.113Z,107.72
2022-12-04T19:41:15.436Z,113.50
2022-12-04T19:43:45.141Z,114.60
2022-12-04T19:46:15.445Z,113.55
2022-12-04T19:48:42.828Z,105.20
2022-12-04T19:51:15.611Z,114.38
2022-12-04T19:53:49.248Z,108.85
2022-12-04T19:56:25.821Z,117.88
2022-12-04T19:58:53.881Z,114.55
2022-12-04T20:01:28.695Z,110.53
2022-12-04T20:03:56.466Z,121.07
2022-12-04T20:06:26.044Z,100.88
2022-12-04T20:09:05.129Z,112.55
2022-12-04T20:11:37.908Z,103.07
2022-12-04T20:14:09.652Z,118.35
2022-12-04T20:16:37.849Z,104.97
2022-12-04T20:19:06.765Z,120.88
2022-12-04T20:21:33.628Z,119.60
2022-12-04T20:24:11.303Z,119.55
2022-12-04T20:26:39.958Z,115.35
2022-12-04T20:29:09.512Z,111.40
2022-12-04T20:31:39.009Z,107.70
2022-12-04T20:34:16.084Z,115.97
2022-12-04T20:36:47.781Z,120.68
2022-12-04T20:39:24.090Z,118.55
2022-12-04T20:41:50.901Z,125.65
2022-12-04T20:44:19.364Z,116.63
2022-12-04T20:46:47.372Z,121.00
2022-12-04T20:49:21.664Z,125.13
2022-12-04T20:51:51.044Z,123.32
2022-12-04T20:54:26.834Z,106.50
2022-12-04T20:56:53.942Z,125.38
2022-12-04T20:59:23.168Z,121.10
2022-12-04T21:01:51.494Z,113.78
2022-12-04T21:04:18.963Z,118.03
2022-12-04T21:06:51.337Z,124.57
2022-12-04T21:09:42.192Z,129.10
2022-12-04T21:12:30.672Z,126.00
2022-12-04T21:15:15.972Z,120.05
2022-12-04T21:20:10.375Z,128.45
2022-12-04T21:22:37.545Z,125.68
2022-12-04T21:25:04.619Z,121.25
2022-12-04T21:27:31.426Z,120.38
2022-12-04T21:30:00.022Z,123.82
2022-12-04T21:32:29.779Z,127.18
2022-12-04T21:34:56.586Z,121.07
2022-12-04T21:37:23.386Z,131.40
2022-12-04T21:39:50.365Z,124.40
2022-12-04T21:42:32.742Z,113.25
2022-12-04T21:45:06.319Z,130.13
2022-12-04T21:47:37.247Z,124.57
2022-12-04T21:50:13.221Z,132.52
2022-12-04T21:52:39.976Z,122.75
2022-12-04T21:55:06.932Z,134.07
2022-12-04T21:57:33.726Z,129.98
2022-12-04T22:00:04.250Z,127.15
2022-12-04T22:02:31.802Z,125.93
2022-12-04T22:04:58.565Z,130.88
2022-12-04T22:07:28.322Z,121.47
2022-12-04T22:09:55.316Z,131.98
2022-12-04T22:15:11.988Z,117.82
2022-12-04T22:17:38.752Z,127.25
2022-12-04T22:20:06.470Z,124.03
2022-12-04T22:22:35.289Z,110.35
2022-12-04T22:25:02.227Z,119.30
2022-12-04T22:27:28.980Z,125.75
2022-12-04T22:29:56.027Z,114.53
2022-12-04T22:32:22.836Z,114.32
2022-12-04T22:34:49.770Z,114.05
2022-12-04T22:37:16.673Z,116.25
2022-12-04T22:39:43.521Z,101.05
2022-12-04T22:42:10.341Z,106.50
2022-12-04T22:44:37.066Z,111.50
2022-12-04T22:47:04.096Z,111.57
2022-12-04T22:49:30.934Z,117.30
2022-12-04T22:51:58.018Z,106.43
2022-12-04T22:54:24.822Z,107.55
2022-12-04T22:56:51.537Z,111.57
2022-12-04T22:59:18.288Z,120.20
2022-12-04T23:01:45.041Z,95.28
2022-12-04T23:04:11.780Z,98.75
2022-12-04T23:06:38.542Z,111.50
2022-12-04T23:09:08.305Z,111.13
2022-12-04T23:11:36.650Z,105.28
2022-12-04T23:14:06.338Z,110.57
2022-12-04T23:16:36.088Z,112.32
2022-12-04T23:19:04.295Z,110.90
2022-12-04T23:21:31.120Z,106.22
2022-12-04T23:23:58.077Z,104.43
2022-12-04T23:26:32.548Z,109.43
2022-12-04T23:28:59.819Z,107.60
2022-12-04T23:31:26.598Z,111.72
2022-12-04T23:33:53.445Z,100.30
2022-12-04T23:36:20.889Z,111.68
2022-12-04T23:38:48.228Z,110.78
2022-12-04T23:41:20.895Z,107.78
2022-12-04T23:43:49.088Z,106.30
2022-12-04T23:46:19.121Z,113.07
2022-12-04T23:48:46.717Z,105.88
2022-12-04T23:51:16.107Z,98.88
2022-12-04T23:53:42.936Z,105.70
2022-12-04T23:56:14.233Z,109.57
2022-12-04T23:58:41.860Z,110.45
